Time;durP1;ratioP1;P1;durP2;ratioP2;P2;SDS_P1;SDS_P2;PMS_P1;PMS_P2;Temp;Humidity;BMP_temperature;BMP_pressure;BME280_temperature;BME280_humidity;BME280_pressure;Samples;Min_cycle;Max_cycle;Signal;HPM_P1;HPM_P2
2023/08/10 00:00:15;;;;;;;2.72;1.50;;;;;;;16.63;70.28;99441.25;6257379;22;20014;-87
2023/08/10 00:02:42;;;;;;;2.22;1.50;;;;;;;16.49;70.87;99428.47;6258001;22;19999;-87
2023/08/10 00:05:08;;;;;;;1.88;1.17;;;;;;;16.57;70.46;99448.69;6257585;22;20053;-87
2023/08/10 00:07:34;;;;;;;1.95;1.30;;;;;;;16.56;70.28;99447.09;6258167;22;19999;-86
2023/08/10 00:10:01;;;;;;;3.28;1.20;;;;;;;16.53;70.75;99439.56;6284054;22;19995;-86
2023/08/10 00:12:26;;;;;;;3.95;1.42;;;;;;;16.50;70.68;99440.19;6257062;22;20007;-86
2023/08/10 00:14:52;;;;;;;1.67;1.20;;;;;;;16.39;70.64;99423.28;6256934;22;20039;-86
2023/08/10 00:17:18;;;;;;;1.42;0.90;;;;;;;16.43;70.72;99418.84;6257766;22;19999;-86
2023/08/10 00:19:44;;;;;;;3.67;1.20;;;;;;;16.50;70.76;99421.94;6256528;22;20003;-87
2023/08/10 00:22:10;;;;;;;2.40;1.10;;;;;;;16.57;70.65;99429.69;6282994;22;19995;-85
2023/08/10 00:24:36;;;;;;;1.52;1.17;;;;;;;16.66;70.41;99437.91;6257416;22;20027;-86
2023/08/10 00:27:03;;;;;;;4.45;1.25;;;;;;;16.73;69.27;99436.38;6257213;22;20053;-86
2023/08/10 00:29:30;;;;;;;1.70;1.30;;;;;;;16.89;69.64;99447.72;6257001;22;20019;-86
2023/08/10 00:31:56;;;;;;;3.13;1.13;;;;;;;16.77;70.13;99431.94;6256384;22;20102;-87
2023/08/10 00:34:22;;;;;;;3.20;1.30;;;;;;;16.77;69.21;99431.94;6257479;22;20418;-86
2023/08/10 00:36:47;;;;;;;2.20;1.10;;;;;;;16.88;69.50;99453.47;6257213;22;20078;-87
2023/08/10 00:39:17;;;;;;;2.88;1.30;;;;;;;16.82;69.92;99457.41;6256413;22;20014;-87
2023/08/10 00:41:43;;;;;;;3.33;1.00;;;;;;;16.68;69.71;99432.97;6257107;22;19999;-86
2023/08/10 00:44:08;;;;;;;5.90;1.13;;;;;;;16.71;69.68;99435.88;6257942;22;20010;-86
2023/08/10 00:46:34;;;;;;;3.60;1.20;;;;;;;16.62;70.54;99429.56;6258741;22;20064;-86
2023/08/10 00:48:59;;;;;;;7.45;1.35;;;;;;;16.70;69.79;99447.84;6258832;22;20006;-86
2023/08/10 00:51:25;;;;;;;1.83;1.20;;;;;;;16.66;68.98;99427.03;6258692;22;19998;-86
2023/08/10 00:53:53;;;;;;;2.35;1.20;;;;;;;16.62;70.06;99415.97;6283848;22;20002;-86
2023/08/10 00:56:18;;;;;;;1.20;1.10;;;;;;;16.71;69.96;99422.28;6258251;22;20449;-87
2023/08/10 00:58:44;;;;;;;3.05;1.20;;;;;;;16.70;70.03;99417.94;6258506;22;20007;-87
2023/08/10 01:01:10;;;;;;;2.85;1.27;;;;;;;16.65;70.17;99412.63;6259202;22;20027;-85
2023/08/10 01:03:35;;;;;;;3.40;1.48;;;;;;;16.64;70.55;99400.13;6258421;22;19999;-87
2023/08/10 01:06:18;;;;;;;4.05;1.40;;;;;;;16.60;70.43;99384.75;6258252;22;19999;-87
2023/08/10 01:09:08;;;;;;;1.35;1.10;;;;;;;16.46;70.91;99369.31;6260125;22;19995;-85
2023/08/10 01:11:41;;;;;;;2.50;1.30;;;;;;;16.51;71.46;99399.06;6258638;22;20025;-86
2023/08/10 01:14:20;;;;;;;3.20;1.42;;;;;;;16.39;71.81;99392.59;6258599;22;20005;-86
2023/08/10 01:16:45;;;;;;;2.30;1.33;;;;;;;16.39;71.86;99392.59;6258767;22;20003;-87
2023/08/10 01:19:20;;;;;;;1.45;1.10;;;;;;;16.33;71.84;99381.00;6257304;22;19999;-85
2023/08/10 01:22:21;;;;;;;6.55;1.67;;;;;;;16.46;71.63;99398.41;6283655;22;20510;-87
2023/08/10 01:25:08;;;;;;;2.20;1.45;;;;;;;16.60;71.01;99410.06;6248204;22;19994;-87
2023/08/10 01:27:34;;;;;;;2.50;1.30;;;;;;;16.55;70.69;99391.13;6258999;22;20000;-87
2023/08/10 01:30:00;;;;;;;2.88;1.10;;;;;;;16.67;69.99;99394.09;6252322;22;20023;-87
2023/08/10 01:32:29;;;;;;;3.10;1.27;;;;;;;16.50;70.28;99383.09;6252942;22;19984;-87
2023/08/10 01:34:55;;;;;;;4.70;1.30;;;;;;;16.66;69.43;99399.84;6253225;22;20000;-86
2023/08/10 01:37:21;;;;;;;1.45;1.00;;;;;;;16.74;69.16;99418.13;6253249;22;20004;-86
2023/08/10 01:39:47;;;;;;;1.55;1.10;;;;;;;16.65;68.65;99412.63;6252540;22;20031;-86
2023/08/10 01:42:12;;;;;;;1.48;1.00;;;;;;;16.73;68.80;99411.91;6252540;22;19999;-86
2023/08/10 01:44:38;;;;;;;1.58;1.00;;;;;;;16.73;69.13;99403.75;6252983;22;20004;-86
2023/08/10 01:47:05;;;;;;;2.25;1.05;;;;;;;16.53;70.25;99398.78;6278710;22;20007;-87
2023/08/10 01:49:33;;;;;;;1.80;1.15;;;;;;;16.56;70.50;99420.72;6279009;22;19995;-86
2023/08/10 01:52:01;;;;;;;4.50;2.33;;;;;;;16.28;71.06;99400.16;6252804;22;20382;-86
2023/08/10 01:54:27;;;;;;;3.88;1.20;;;;;;;16.32;71.18;99412.81;6252666;22;20042;-86
2023/08/10 01:56:52;;;;;;;1.23;1.00;;;;;;;16.00;71.48;99373.06;6253121;22;20003;-85
2023/08/10 01:59:18;;;;;;;1.10;1.00;;;;;;;16.07;71.36;99381.59;6252871;22;20011;-87
2023/08/10 02:01:43;;;;;;;1.50;1.05;;;;;;;16.12;71.53;99396.97;6279474;22;20004;-86
2023/08/10 02:04:09;;;;;;;1.40;1.00;;;;;;;16.07;71.89;99397.88;6277865;22;20000;-85
2023/08/10 02:06:39;;;;;;;3.08;1.10;;;;;;;16.05;72.11;99402.03;6278106;22;19995;-86
2023/08/10 02:09:05;;;;;;;1.38;1.10;;;;;;;16.02;72.65;99414.31;6278265;22;20422;-87
2023/08/10 02:11:31;;;;;;;2.03;1.13;;;;;;;16.02;72.30;99411.59;6252094;22;20004;-86
2023/08/10 02:13:56;;;;;;;3.63;1.20;;;;;;;16.03;72.45;99404.22;6253199;22;20006;-87
2023/08/10 02:16:22;;;;;;;1.77;1.23;;;;;;;16.09;72.39;99401.09;6278517;22;20004;-87
2023/08/10 02:18:48;;;;;;;5.15;1.40;;;;;;;16.06;72.40;99395.47;6278020;22;20083;-87
2023/08/10 02:21:14;;;;;;;1.75;1.30;;;;;;;16.01;72.63;99387.44;6278346;22;20007;-87
2023/08/10 02:23:39;;;;;;;2.00;1.30;;;;;;;16.09;72.01;99395.66;6278987;22;19988;-87
2023/08/10 02:26:04;;;;;;;5.10;1.40;;;;;;;16.12;72.25;99394.25;6278886;22;20003;-87
2023/08/10 02:28:30;;;;;;;3.33;1.50;;;;;;;16.06;71.74;99379.16;6277816;22;20426;-86
2023/08/10 02:30:56;;;;;;;2.28;1.50;;;;;;;16.07;71.60;99392.44;6251680;22;20024;-87
2023/08/10 02:33:21;;;;;;;3.22;1.23;;;;;;;16.15;71.76;99410.75;6252455;22;20078;-87
2023/08/10 02:35:48;;;;;;;3.38;1.20;;;;;;;16.20;71.29;99411.75;6277893;22;20069;-87
2023/08/10 02:38:14;;;;;;;2.50;1.30;;;;;;;16.20;70.83;99403.59;6252331;22;20003;-86
2023/08/10 02:40:39;;;;;;;1.75;1.20;;;;;;;16.32;69.93;99404.69;6278456;22;20015;-87
2023/08/10 02:43:07;;;;;;;1.40;1.10;;;;;;;16.45;69.47;99394.06;6278706;22;20402;-87
2023/08/10 02:45:32;;;;;;;1.20;1.00;;;;;;;16.34;71.12;99391.59;6279232;22;20023;-87
2023/08/10 02:48:01;;;;;;;2.03;1.25;;;;;;;16.22;71.57;99379.66;6252443;22;20026;-87
2023/08/10 02:50:26;;;;;;;3.10;1.20;;;;;;;16.23;72.17;99395.66;6277324;22;20078;-87
2023/08/10 02:52:52;;;;;;;6.10;1.50;;;;;;;16.15;72.52;99405.31;6278011;22;20075;-87
2023/08/10 02:55:17;;;;;;;4.43;1.38;;;;;;;16.09;72.79;99406.53;6277221;22;20006;-87
2023/08/10 02:57:43;;;;;;;2.88;1.40;;;;;;;15.98;72.79;99396.19;6252434;22;20008;-87
2023/08/10 03:00:12;;;;;;;2.50;1.33;;;;;;;16.00;72.64;99399.41;6277833;22;20011;-85
2023/08/10 03:02:38;;;;;;;2.53;1.20;;;;;;;16.05;72.62;99412.88;6253019;22;20079;-86
2023/08/10 03:05:05;;;;;;;3.63;1.30;;;;;;;16.10;72.54;99415.47;6252204;22;20007;-85
2023/08/10 03:07:31;;;;;;;5.55;1.45;;;;;;;16.06;72.76;99406.31;6252308;22;20000;-86
2023/08/10 03:09:58;;;;;;;2.42;1.20;;;;;;;16.07;72.62;99408.75;6277749;22;20006;-87
2023/08/10 03:12:23;;;;;;;3.80;1.10;;;;;;;16.17;72.21;99424.03;6277291;22;20003;-85
2023/08/10 03:14:49;;;;;;;1.85;1.10;;;;;;;16.11;71.98;99406.25;6253093;22;20022;-86
2023/08/10 03:17:17;;;;;;;3.10;1.52;;;;;;;16.14;72.50;99411.88;6252416;22;20070;-86
2023/08/10 03:19:43;;;;;;;1.85;1.13;;;;;;;15.94;72.34;99398.72;6251597;22;20504;-85
2023/08/10 03:22:09;;;;;;;4.25;1.42;;;;;;;15.96;73.13;99416.31;6277590;22;20003;-88
2023/08/10 03:24:36;;;;;;;3.05;1.30;;;;;;;16.03;73.46;99421.31;6253851;22;20011;-88
2023/08/10 03:27:01;;;;;;;7.53;1.58;;;;;;;15.93;73.06;99413.38;6252872;22;20047;-87
2023/08/10 03:29:27;;;;;;;4.70;1.55;;;;;;;15.70;74.30;99401.59;6252458;22;19995;-86
2023/08/10 03:31:55;;;;;;;3.13;1.45;;;;;;;15.66;74.33;99406.03;6252289;22;20019;-87
2023/08/10 03:34:20;;;;;;;15.35;2.20;;;;;;;15.74;74.30;99414.28;6254016;22;20000;-87
2023/08/10 03:36:48;;;;;;;3.75;1.50;;;;;;;15.68;74.55;99422.81;6252993;22;20073;-88
2023/08/10 03:39:14;;;;;;;2.55;1.60;;;;;;;15.62;74.37;99418.59;6251797;22;19988;-87
2023/08/10 03:41:39;;;;;;;4.60;1.30;;;;;;;15.52;75.10;99414.97;6251466;22;20000;-87
2023/08/10 03:44:07;;;;;;;4.05;1.40;;;;;;;15.44;74.98;99412.97;6303478;22;20339;-87
2023/08/10 03:46:33;;;;;;;4.53;2.15;;;;;;;15.55;75.53;99424.41;6252075;22;20053;-87
2023/08/10 03:48:59;;;;;;;3.40;1.55;;;;;;;15.51;75.06;99410.63;6252712;22;20078;-87
2023/08/10 03:51:24;;;;;;;3.70;1.40;;;;;;;15.57;75.30;99417.56;6278057;22;20003;-87
2023/08/10 03:53:50;;;;;;;2.10;1.60;;;;;;;15.60;75.11;99421.59;6252072;22;20000;-87
2023/08/10 03:56:16;;;;;;;5.55;3.30;;;;;;;15.51;75.41;99410.63;6253312;22;20068;-88
2023/08/10 03:58:42;;;;;;;6.03;2.00;;;;;;;15.52;75.28;99406.84;6279492;22;19995;-86
2023/08/10 04:01:10;;;;;;;9.57;2.70;;;;;;;15.64;75.14;99417.19;6257347;22;20003;-94
2023/08/10 04:03:36;;;;;;;9.27;3.00;;;;;;;15.72;74.51;99399.41;6257057;22;20044;-94
2023/08/10 04:06:02;;;;;;;5.90;2.10;;;;;;;15.61;74.16;99401.50;6254356;22;20142;-94
2023/08/10 04:08:28;;;;;;;10.13;3.20;;;;;;;15.72;74.34;99397.50;6255550;22;19999;-94
2023/08/10 04:10:53;;;;;;;8.68;2.63;;;;;;;15.85;74.51;99412.19;6255302;22;19988;-94
2023/08/10 04:13:24;;;;;;;5.95;2.10;;;;;;;15.95;73.88;99406.53;6280109;22;20061;-93
2023/08/10 04:15:50;;;;;;;5.05;2.10;;;;;;;16.02;73.27;99405.31;6255977;22;20004;-93
2023/08/10 04:18:16;;;;;;;4.90;1.80;;;;;;;16.07;72.91;99402.53;6280648;22;20323;-93
2023/08/10 04:20:42;;;;;;;4.75;1.40;;;;;;;16.12;72.95;99402.41;6310172;22;20023;-94
2023/08/10 04:23:08;;;;;;;4.18;1.80;;;;;;;16.11;73.42;99396.16;6257949;22;20014;-94
2023/08/10 04:25:33;;;;;;;9.60;5.63;;;;;;;16.20;73.09;99414.47;6284581;22;20006;-94
2023/08/10 04:28:01;;;;;;;37.45;11.45;;;;;;;16.15;73.71;99409.97;6284030;22;20018;-88
2023/08/10 04:30:29;;;;;;;8.27;1.83;;;;;;;16.14;73.93;99408.34;6255292;22;20022;-88
2023/08/10 04:32:56;;;;;;;3.22;1.70;;;;;;;16.21;73.95;99410.63;6280029;22;20452;-88
2023/08/10 04:35:22;;;;;;;3.33;1.58;;;;;;;16.16;73.76;99416.97;6254931;22;20019;-88
2023/08/10 04:37:49;;;;;;;5.55;1.85;;;;;;;16.14;73.45;99400.19;6279493;22;20027;-86
2023/08/10 04:40:14;;;;;;;4.13;1.65;;;;;;;16.10;73.56;99410.88;6254037;22;20008;-87
2023/08/10 04:42:40;;;;;;;5.28;2.17;;;;;;;16.05;73.74;99407.44;6279416;22;20002;-87
2023/08/10 04:45:15;;;;;;;4.45;1.70;;;;;;;16.09;73.87;99411.97;6279198;22;20026;-88
2023/08/10 04:47:43;;;;;;;6.50;2.50;;;;;;;15.98;73.57;99393.47;6300811;22;19995;-87
2023/08/10 04:50:09;;;;;;;4.82;2.05;;;;;;;16.05;73.64;99421.03;6253420;22;20338;-86
2023/08/10 04:52:34;;;;;;;4.97;2.20;;;;;;;16.11;73.87;99438.84;6253706;22;20000;-87
2023/08/10 04:55:03;;;;;;;3.90;1.80;;;;;;;16.11;74.04;99441.56;6279532;22;20042;-87
2023/08/10 04:57:28;;;;;;;5.72;2.10;;;;;;;16.02;74.20;99441.47;6254103;22;20000;-90
2023/08/10 04:59:53;;;;;;;9.57;2.03;;;;;;;16.11;74.44;99452.41;6252283;22;20045;-86
2023/08/10 05:02:19;;;;;;;8.07;3.10;;;;;;;15.97;75.05;99449.69;6279176;22;20003;-87
2023/08/10 05:04:46;;;;;;;9.32;2.80;;;;;;;15.91;74.96;99442.75;6279012;22;20076;-87
2023/08/10 05:07:12;;;;;;;6.95;2.63;;;;;;;16.03;75.31;99450.41;6255146;22;20010;-86
2023/08/10 05:09:37;;;;;;;7.65;2.40;;;;;;;15.83;74.88;99427.16;6306473;22;20378;-85
2023/08/10 05:12:04;;;;;;;5.85;2.33;;;;;;;15.84;75.12;99445.09;6253747;22;20323;-86
2023/08/10 05:14:29;;;;;;;9.35;2.67;;;;;;;15.90;74.36;99450.09;6304257;22;19999;-86
2023/08/10 05:16:55;;;;;;;4.35;1.88;;;;;;;15.98;73.82;99447.78;6280815;22;20323;-86
2023/08/10 05:19:20;;;;;;;2.80;2.00;;;;;;;15.96;74.42;99443.47;6279758;22;20003;-90
2023/08/10 05:21:46;;;;;;;5.38;2.25;;;;;;;16.06;73.54;99426.16;6255234;22;20045;-88
2023/08/10 05:24:11;;;;;;;3.05;1.70;;;;;;;16.40;73.17;99440.41;6280409;22;19998;-88
2023/08/10 05:26:37;;;;;;;3.25;2.10;;;;;;;16.26;72.73;99422.19;6280069;22;19999;-90
2023/08/10 05:29:03;;;;;;;8.95;2.10;;;;;;;16.48;72.40;99424.16;6255460;22;20488;-85
2023/08/10 05:31:28;;;;;;;11.88;5.18;;;;;;;16.83;71.97;99451.69;6257189;22;20022;-88
2023/08/10 05:33:54;;;;;;;6.07;2.20;;;;;;;16.99;71.14;99451.31;6281505;22;20008;-89
2023/08/10 05:36:20;;;;;;;8.45;4.85;;;;;;;17.12;71.05;99469.47;6252545;22;20180;-88
2023/08/10 05:38:45;;;;;;;4.43;2.20;;;;;;;17.08;70.91;99460.31;6278472;22;19995;-88
2023/08/10 05:41:11;;;;;;;5.32;2.67;;;;;;;17.02;70.87;99454.22;6252702;22;20006;-87
2023/08/10 05:43:37;;;;;;;6.70;3.63;;;;;;;17.20;70.11;99482.34;6278266;22;20010;-88
2023/08/10 05:46:02;;;;;;;7.85;2.25;;;;;;;17.38;69.81;99475.88;6255152;22;20000;-89
2023/08/10 05:48:28;;;;;;;5.03;2.00;;;;;;;17.49;70.08;99490.06;6280544;22;20007;-87
2023/08/10 05:50:53;;;;;;;7.07;2.15;;;;;;;17.37;69.76;99468.84;6253966;22;19992;-89
2023/08/10 05:53:19;;;;;;;6.03;3.05;;;;;;;17.41;69.33;99479.94;6279514;22;19996;-88
2023/08/10 05:55:44;;;;;;;3.95;1.90;;;;;;;17.34;69.53;99471.38;6279675;22;20069;-87
2023/08/10 05:58:10;;;;;;;7.35;2.53;;;;;;;17.47;69.28;99473.25;6254860;22;19995;-88
2023/08/10 06:00:36;;;;;;;6.78;2.05;;;;;;;17.63;68.75;99470.09;6254613;22;20028;-86
2023/08/10 06:03:05;;;;;;;9.30;2.50;;;;;;;17.80;68.36;99481.06;6257232;22;20346;-89
2023/08/10 06:05:37;;;;;;;9.80;4.38;;;;;;;17.93;68.29;99482.94;6263174;22;20010;-92
2023/08/10 06:08:33;;;;;;;5.47;2.75;;;;;;;18.06;67.38;99469.50;6291647;22;20430;-87
2023/08/10 06:11:02;;;;;;;15.23;5.70;;;;;;;18.13;66.77;99467.91;6258580;22;19999;-89
2023/08/10 06:13:38;;;;;;;;;;;;;;;;;;;;;
2023/08/10 06:16:27;;;;;;;8.65;3.55;;;;;;;18.61;66.15;99490.78;6283199;22;20022;-89
2023/08/10 06:19:17;;;;;;;4.72;2.20;;;;;;;18.82;64.35;99499.16;6281480;22;20000;-88
2023/08/10 06:21:43;;;;;;;11.05;5.22;;;;;;;18.73;64.88;99480.03;6258646;22;19999;-89
2023/08/10 06:24:09;;;;;;;13.82;4.50;;;;;;;18.91;64.33;99491.81;6255742;22;20453;-90
2023/08/10 06:26:36;;;;;;;10.15;3.47;;;;;;;19.12;63.95;99494.69;6282527;22;20000;-87
2023/08/10 06:29:02;;;;;;;10.18;2.17;;;;;;;19.31;63.04;99501.72;6252906;22;20078;-87
2023/08/10 06:31:28;;;;;;;42.92;20.65;;;;;;;19.49;63.29;99489.66;6251350;22;20051;-87
2023/08/10 06:33:57;;;;;;;8.45;2.70;;;;;;;19.52;61.42;99491.72;6229578;22;19999;-89
2023/08/10 06:39:33;;;;;;;8.88;2.40;;;;;;;19.84;60.85;99480.56;6303169;22;20003;-89
2023/08/10 06:42:02;;;;;;;10.10;2.83;;;;;;;19.95;60.65;99479.09;6305240;22;20000;-88
2023/08/10 06:44:31;;;;;;;4.57;2.10;;;;;;;20.04;59.43;99484.50;6254318;22;20091;-87
2023/08/10 06:46:57;;;;;;;3.70;2.60;;;;;;;20.05;58.62;99478.72;6279669;22;20003;-88
2023/08/10 06:49:29;;;;;;;10.98;3.45;;;;;;;20.15;59.81;99469.31;6255763;22;19992;-89
2023/08/10 06:52:01;;;;;;;6.68;2.65;;;;;;;20.44;59.10;99473.16;6307147;22;20000;-90
2023/08/10 06:54:27;;;;;;;15.07;5.40;;;;;;;20.57;58.92;99483.06;6256990;22;20507;-90
2023/08/10 06:56:57;;;;;;;6.80;2.70;;;;;;;20.56;55.69;99467.78;6306372;22;20078;-90
2023/08/10 06:59:36;;;;;;;6.47;2.03;;;;;;;20.79;54.73;99477.31;6279668;22;20517;-88
2023/08/10 07:02:08;;;;;;;6.07;1.70;;;;;;;21.08;54.71;99486.53;6280796;22;20423;-91
2023/08/10 07:04:34;;;;;;;5.13;1.58;;;;;;;21.12;52.09;99484.72;6257929;22;20031;-92
2023/08/10 07:07:00;;;;;;;4.10;1.45;;;;;;;21.00;51.80;99465.53;6281423;22;20002;-87
2023/08/10 07:09:27;;;;;;;4.47;1.80;;;;;;;21.15;51.08;99467.66;6255099;22;19988;-87
2023/08/10 07:15:54;;;;;;;1.70;1.15;;;;;;;21.64;47.91;99496.34;6258504;23;20015;-93
2023/08/10 07:18:20;;;;;;;11.10;7.70;;;;;;;21.45;47.74;99470.28;6201782;22;20000;-94
2023/08/10 07:21:20;;;;;;;7.38;5.47;;;;;;;21.52;47.83;99481.50;6285103;22;20015;-92
2023/08/10 07:23:46;;;;;;;4.07;3.15;;;;;;;21.76;47.05;99497.16;6285579;22;20006;-93
2023/08/10 07:26:50;;;;;;;;;;;;;;;;;;;;;
2023/08/10 07:29:18;;;;;;;2.28;1.30;;;;;;;21.83;47.53;99471.13;6291162;22;20015;-96
2023/08/10 07:31:44;;;;;;;1.45;0.95;;;;;;;21.94;47.41;99477.78;6236067;22;20015;-94
2023/08/10 07:34:10;;;;;;;2.33;1.40;;;;;;;21.93;47.86;99470.69;6260628;22;20456;-96
2023/08/10 07:39:31;;;;;;;3.72;2.17;;;;;;;22.18;47.69;99498.91;6284187;22;20027;-93
2023/08/10 07:43:04;;;;;;;6.13;4.45;;;;;;;22.30;46.50;99509.91;6270707;22;20007;-95
2023/08/10 07:45:32;;;;;;;5.73;1.40;;;;;;;22.14;46.67;99470.56;6315939;22;20037;-93
2023/08/10 07:47:59;;;;;;;2.28;1.27;;;;;;;22.31;46.33;99488.78;6291550;22;20432;-93
2023/08/10 07:50:28;;;;;;;4.32;2.72;;;;;;;22.30;45.76;99485.22;6240081;22;20040;-94
2023/08/10 07:52:54;;;;;;;13.77;5.78;;;;;;;22.29;45.45;99496.56;6267766;22;19999;-95
2023/08/10 07:56:04;;;;;;;46.45;31.27;;;;;;;22.45;43.80;99502.13;6252765;22;20011;-96
2023/08/10 07:58:33;;;;;;;4.78;3.40;;;;;;;22.58;45.42;99499.03;6307481;22;19987;-96
2023/08/10 08:00:59;;;;;;;10.18;4.25;;;;;;;22.59;45.07;99475.91;6275488;22;20003;-95
2023/08/10 08:11:52;;;;;;;1.23;0.90;;;;;;;22.97;42.24;99499.38;6190911;22;20041;-87
2023/08/10 08:14:17;;;;;;;1.70;1.00;;;;;;;23.18;41.83;99512.16;6276527;22;20018;-90
2023/08/10 08:16:47;;;;;;;2.10;1.10;;;;;;;23.01;41.95;99502.25;6270544;22;19994;-91
2023/08/10 08:19:14;;;;;;;4.65;2.30;;;;;;;23.12;42.36;99500.63;6294091;22;20014;-91
2023/08/10 08:21:39;;;;;;;4.30;1.40;;;;;;;23.23;43.44;99508.34;6264413;22;20009;-90
2023/08/10 08:24:05;;;;;;;4.18;1.50;;;;;;;23.43;44.03;99512.84;6266321;22;20026;-88
2023/08/10 08:26:33;;;;;;;4.45;2.03;;;;;;;23.40;44.88;99508.81;6266917;22;20006;-88
2023/08/10 08:29:08;;;;;;;5.05;1.90;;;;;;;23.64;45.01;99531.84;6268011;22;20076;-88
2023/08/10 08:31:35;;;;;;;8.18;1.90;;;;;;;23.67;45.77;99522.88;6297383;22;20010;-88
2023/08/10 08:34:01;;;;;;;3.63;1.65;;;;;;;23.72;45.90;99499.81;6274173;22;19999;-86
2023/08/10 08:36:26;;;;;;;2.35;1.58;;;;;;;23.82;45.79;99524.09;6267638;22;20444;-86
2023/08/10 08:38:52;;;;;;;3.78;2.50;;;;;;;23.69;46.05;99490.34;6291952;22;20076;-87
2023/08/10 08:41:29;;;;;;;6.22;2.40;;;;;;;23.75;46.80;99507.38;6296088;22;20009;-88
2023/08/10 08:43:55;;;;;;;4.60;1.90;;;;;;;23.72;46.20;99486.91;6268142;22;19979;-88
2023/08/10 08:46:24;;;;;;;4.13;1.95;;;;;;;23.79;46.58;99494.56;6291671;22;19995;-87
2023/08/10 08:48:50;;;;;;;4.03;2.00;;;;;;;23.88;46.95;99500.66;6271116;22;19998;-94
2023/08/10 08:51:39;;;;;;;6.10;2.42;;;;;;;24.10;47.21;99507.50;6277527;22;20009;-96
2023/08/10 08:54:05;;;;;;;6.50;3.10;;;;;;;24.14;47.18;99477.34;6276659;22;20060;-93
2023/08/10 08:56:33;;;;;;;5.15;3.13;;;;;;;24.31;46.34;99498.94;6272917;22;19995;-91
2023/08/10 08:59:17;;;;;;;6.93;3.80;;;;;;;24.29;46.49;99487.50;6277729;22;20034;-92
2023/08/10 09:01:42;;;;;;;5.43;2.20;;;;;;;24.44;45.37;99474.84;6326103;22;20003;-91
2023/08/10 09:04:14;;;;;;;10.57;4.13;;;;;;;24.78;45.97;99503.56;6272263;22;20001;-92
2023/08/10 09:06:40;;;;;;;9.15;2.65;;;;;;;24.59;44.75;99482.31;6329031;22;20007;-94
2023/08/10 09:09:10;;;;;;;19.73;4.28;;;;;;;24.58;44.16;99494.47;6276564;22;20002;-93
2023/08/10 09:11:46;;;;;;;13.77;4.05;;;;;;;24.62;45.33;99469.78;6266948;22;20102;-91
2023/08/10 09:14:13;;;;;;;4.28;2.10;;;;;;;24.69;44.54;99478.19;6266168;22;20007;-86
2023/08/10 09:16:38;;;;;;;12.55;3.30;;;;;;;24.85;45.04;99463.56;6286738;22;20002;-89
2023/08/10 09:19:12;;;;;;;4.03;2.42;;;;;;;25.17;43.97;99483.47;6274657;22;20054;-96
2023/08/10 09:21:45;;;;;;;7.43;2.85;;;;;;;25.26;43.74;99469.53;6295543;22;20450;-96
2023/08/10 09:24:13;;;;;;;8.68;3.30;;;;;;;25.30;44.34;99446.38;6271666;22;20081;-93
2023/08/10 09:27:01;;;;;;;4.38;2.80;;;;;;;25.28;42.06;99447.91;6265458;22;20010;-93
2023/08/10 09:30:06;;;;;;;4.30;2.20;;;;;;;25.54;42.61;99445.19;6276754;22;20010;-93
2023/08/10 09:32:32;;;;;;;3.08;2.20;;;;;;;25.92;41.09;99459.25;6318573;22;20002;-93
2023/08/10 09:34:58;;;;;;;4.70;2.45;;;;;;;26.24;40.52;99472.78;6263823;22;20070;-93
2023/08/10 09:37:24;;;;;;;4.05;2.05;;;;;;;26.36;39.40;99454.00;6263569;22;19999;-94
2023/08/10 09:39:57;;;;;;;3.58;2.03;;;;;;;26.40;39.51;99451.31;6291779;22;20008;-91
2023/08/10 09:42:23;;;;;;;2.28;1.77;;;;;;;26.31;38.48;99437.75;6268893;22;20029;-96
2023/08/10 09:45:28;;;;;;;3.53;1.80;;;;;;;26.37;39.00;99452.84;6271368;22;20038;-95
2023/08/10 09:48:00;;;;;;;2.90;1.70;;;;;;;26.20;40.15;99432.09;6292959;22;19999;-93
2023/08/10 09:50:33;;;;;;;;;;;;;;;26.38;38.85;99457.19;6268268;22;19999;-94
2023/08/10 09:53:22;;;;;;;2.80;2.17;;;;;;;26.24;38.33;99429.38;6319659;22;19886;-95
2023/08/10 09:55:53;;;;;;;8.32;3.88;;;;;;;26.57;37.42;99434.22;6299708;22;20015;-96
2023/08/10 09:58:27;;;;;;;2.42;1.58;;;;;;;26.75;37.44;99452.97;6279679;22;20084;-96
2023/08/10 10:00:52;;;;;;;2.95;1.60;;;;;;;26.69;36.91;99444.22;6315288;22;20034;-89
2023/08/10 10:03:19;;;;;;;2.47;1.75;;;;;;;26.65;37.12;99428.78;6259298;22;19999;-90
2023/08/10 10:05:45;;;;;;;3.78;1.80;;;;;;;26.80;38.24;99458.16;6260168;22;19999;-89
2023/08/10 10:08:11;;;;;;;2.25;1.48;;;;;;;26.75;36.62;99456.53;6262977;22;20010;-91
2023/08/10 10:10:51;;;;;;;9.65;5.80;;;;;;;26.29;37.87;99426.28;6262136;22;19999;-90
2023/08/10 10:13:16;;;;;;;2.72;1.75;;;;;;;26.62;37.02;99422.03;6264720;22;20039;-88
2023/08/10 10:15:44;;;;;;;2.75;1.58;;;;;;;26.95;36.71;99428.72;6262843;22;20350;-87
2023/08/10 10:18:10;;;;;;;2.00;1.70;;;;;;;26.76;37.18;99422.19;6261601;22;19999;-89
2023/08/10 10:20:38;;;;;;;2.63;1.63;;;;;;;26.83;37.13;99435.28;6266729;22;20026;-91
2023/08/10 10:23:07;;;;;;;2.42;1.50;;;;;;;26.76;37.24;99426.94;6262399;22;20003;-87
2023/08/10 10:25:35;;;;;;;3.13;1.90;;;;;;;26.49;38.16;99420.66;6262758;22;20410;-88
2023/08/10 10:28:00;;;;;;;2.85;1.50;;;;;;;26.71;37.84;99411.50;6287184;22;20018;-90
2023/08/10 10:30:26;;;;;;;3.17;1.92;;;;;;;26.79;36.99;99402.13;6263779;22;20064;-88
2023/08/10 10:32:51;;;;;;;3.42;1.60;;;;;;;26.88;37.03;99412.88;6262153;22;20058;-88
2023/08/10 10:35:31;;;;;;;3.25;1.33;;;;;;;26.94;37.62;99419.66;6286381;22;20074;-89
2023/08/10 10:38:10;;;;;;;2.20;1.38;;;;;;;26.71;37.18;99396.88;6260491;22;20030;-90
2023/08/10 10:40:37;;;;;;;1.85;1.35;;;;;;;26.67;36.78;99405.13;6293567;22;20007;-87
2023/08/10 10:43:03;;;;;;;2.55;1.55;;;;;;;26.84;37.03;99417.56;6259353;22;20003;-87
2023/08/10 10:45:29;;;;;;;3.78;1.50;;;;;;;26.67;37.31;99399.59;6310863;22;19999;-87
2023/08/10 10:47:56;;;;;;;2.22;1.45;;;;;;;26.62;37.56;99394.41;6263491;22;19999;-89
2023/08/10 10:50:28;;;;;;;3.13;1.30;;;;;;;26.98;36.35;99412.19;6293033;22;20003;-90
2023/08/10 10:52:55;;;;;;;2.13;1.27;;;;;;;26.85;36.14;99415.59;6340587;22;20058;-87
2023/08/10 10:55:24;;;;;;;7.28;2.50;;;;;;;26.47;36.77;99392.63;6312720;22;20041;-87
2023/08/10 10:57:52;;;;;;;2.95;1.42;;;;;;;26.43;37.05;99384.28;6260009;22;20021;-88
2023/08/10 11:01:16;;;;;;;2.97;1.40;;;;;;;26.70;36.27;99406.34;6286223;22;20373;-90
2023/08/10 11:03:42;;;;;;;3.45;1.80;;;;;;;26.81;36.02;99405.31;6311626;22;20003;-88
2023/08/10 11:06:20;;;;;;;2.00;1.33;;;;;;;26.75;35.10;99394.94;6260123;22;20410;-91
2023/08/10 11:09:01;;;;;;;2.13;1.50;;;;;;;26.71;34.55;99383.06;6269922;22;20065;-93
2023/08/10 11:11:29;;;;;;;2.42;1.80;;;;;;;26.98;34.33;99392.84;6265372;22;20019;-92
2023/08/10 11:13:55;;;;;;;1.85;1.50;;;;;;;27.09;34.37;99384.66;6264680;22;19999;-90
2023/08/10 11:16:21;;;;;;;2.88;1.70;;;;;;;27.05;35.35;99370.00;6263897;22;19995;-88
2023/08/10 11:18:50;;;;;;;4.93;1.88;;;;;;;27.17;35.09;99382.78;6292716;22;20025;-92
2023/08/10 11:21:16;;;;;;;2.67;1.48;;;;;;;27.25;34.79;99378.94;6268267;22;20010;-89
2023/08/10 11:23:50;;;;;;;3.50;1.70;;;;;;;27.34;34.18;99382.16;6290075;22;20007;-90
2023/08/10 11:26:16;;;;;;;1.92;1.40;;;;;;;27.42;34.13;99377.50;6272102;22;20075;-91
2023/08/10 11:28:42;;;;;;;2.30;1.45;;;;;;;27.40;32.75;99382.63;6290443;22;20437;-91
2023/08/10 11:31:08;;;;;;;2.10;1.20;;;;;;;27.28;32.45;99369.06;6293083;22;20064;-93
2023/08/10 11:33:37;;;;;;;2.35;1.38;;;;;;;27.47;31.87;99381.88;6264672;22;20089;-90
2023/08/10 11:36:03;;;;;;;2.55;1.33;;;;;;;27.54;32.60;99393.00;6275947;22;20081;-91
2023/08/10 11:38:49;;;;;;;2.97;1.20;;;;;;;27.51;32.69;99369.66;6273933;22;20054;-91
2023/08/10 11:41:24;;;;;;;1.52;1.10;;;;;;;27.53;31.54;99372.84;6306062;22;20429;-91
2023/08/10 11:43:56;;;;;;;2.38;1.48;;;;;;;27.76;32.04;99366.28;6270118;22;20003;-91
2023/08/10 11:46:30;;;;;;;1.75;1.10;;;;;;;27.79;30.25;99363.56;6292858;22;19986;-93
2023/08/10 11:48:58;;;;;;;3.55;1.30;;;;;;;27.70;31.62;99370.59;6271554;22;20005;-95
2023/08/10 11:51:36;;;;;;;1.52;1.13;;;;;;;27.97;31.32;99362.88;6270497;22;20010;-92
2023/08/10 11:54:08;;;;;;;3.97;1.55;;;;;;;28.41;31.13;99365.50;6325407;22;19999;-91
2023/08/10 11:59:39;;;;;;;15.02;6.78;;;;;;;28.52;31.45;99350.94;6322757;22;20062;-91
2023/08/10 12:02:16;;;;;;;7.15;4.88;;;;;;;28.78;30.45;99358.94;6267553;22;20005;-89
2023/08/10 12:04:44;;;;;;;4.07;3.13;;;;;;;28.79;30.40;99366.06;6294658;22;19994;-89
2023/08/10 12:07:10;;;;;;;2.20;1.23;;;;;;;28.63;29.70;99351.75;6268060;22;20314;-89